createdAt,value
2019-02-20T00:01:01.713Z,100715.96
2019-02-20T00:02:36.603Z,100721.75
2019-02-20T00:04:11.394Z,100715.61
2019-02-20T00:05:47.054Z,100717.78
2019-02-20T00:07:21.870Z,100720.78
2019-02-20T00:08:56.660Z,100724.31
2019-02-20T00:10:31.444Z,100725.93
2019-02-20T00:12:06.464Z,100728.17
2019-02-20T00:13:41.490Z,100737.12
2019-02-20T00:15:16.534Z,100740.73
2019-02-20T00:16:51.309Z,100739.30
2019-02-20T00:18:26.099Z,100736.08
2019-02-20T00:20:01.131Z,100741.44
2019-02-20T00:21:35.933Z,100745.95
2019-02-20T00:23:10.718Z,100741.14
2019-02-20T00:24:45.496Z,100737.87
2019-02-20T00:26:20.536Z,100735.33
2019-02-20T00:27:55.553Z,100726.77
2019-02-20T00:29:30.580Z,100729.14
2019-02-20T00:31:06.105Z,100732.98
2019-02-20T00:32:40.913Z,100737.89
2019-02-20T00:34:15.708Z,100742.58
2019-02-20T00:35:50.484Z,100736.99
2019-02-20T00:37:25.259Z,100739.73
2019-02-20T00:39:00.095Z,100734.44
2019-02-20T00:40:34.873Z,100738.89
2019-02-20T00:42:09.658Z,100739.45
2019-02-20T00:43:48.191Z,100739.22
2019-02-20T00:45:47.569Z,100737.37
2019-02-20T00:47:34.856Z,100750.02
2019-02-20T00:49:16.379Z,100743.88
2019-02-20T00:50:53.922Z,100742.89
2019-02-20T00:52:36.213Z,100747.68
2019-02-20T00:54:11.002Z,100747.14
2019-02-20T00:55:46.259Z,100739.52
2019-02-20T00:57:21.134Z,100741.28
2019-02-20T00:58:55.915Z,100738.56
2019-02-20T01:00:30.704Z,100749.58
2019-02-20T01:02:05.765Z,100741.25
2019-02-20T01:03:40.915Z,100752.23
2019-02-20T01:05:15.876Z,100744.64
2019-02-20T01:06:50.666Z,100748.45
2019-02-20T01:08:25.708Z,100749.63
2019-02-20T01:10:00.823Z,100750.19
2019-02-20T01:11:35.583Z,100746.88
2019-02-20T01:13:10.652Z,100750.25
2019-02-20T01:14:45.672Z,100751.55
2019-02-20T01:16:20.484Z,100746.09
2019-02-20T01:17:55.521Z,100740.94
2019-02-20T01:19:30.310Z,100750.79
2019-02-20T01:21:05.461Z,100741.95
2019-02-20T01:22:40.239Z,100749.48
2019-02-20T01:24:15.091Z,100746.98
2019-02-20T01:25:50.376Z,100751.86
2019-02-20T01:27:25.196Z,100744.75
2019-02-20T01:28:59.979Z,100744.12
2019-02-20T01:30:35.026Z,100742.88
2019-02-20T01:32:09.817Z,100743.74
2019-02-20T01:33:44.908Z,100745.17
2019-02-20T01:35:19.760Z,100738.56
2019-02-20T01:36:54.626Z,100740.16
2019-02-20T01:38:29.647Z,100733.01
2019-02-20T01:40:04.571Z,100739.61
2019-02-20T01:41:39.613Z,100738.25
2019-02-20T01:43:14.650Z,100733.67
2019-02-20T01:44:49.425Z,100734.31
2019-02-20T01:46:24.227Z,100730.94
2019-02-20T01:47:59.523Z,100731.30
2019-02-20T01:49:34.295Z,100736.00
2019-02-20T01:51:09.427Z,100732.72
2019-02-20T01:52:44.214Z,100735.53
2019-02-20T01:54:18.998Z,100736.41
2019-02-20T01:55:54.048Z,100736.80
2019-02-20T01:57:29.155Z,100737.51
2019-02-20T01:59:04.018Z,100738.67
2019-02-20T02:00:39.232Z,100740.61
2019-02-20T02:02:14.026Z,100740.19
2019-02-20T02:03:49.084Z,100744.41
2019-02-20T02:05:23.863Z,100736.53
2019-02-20T02:06:58.910Z,100742.59
2019-02-20T02:08:33.693Z,100736.33
2019-02-20T02:10:09.185Z,100741.80
2019-02-20T02:11:43.973Z,100739.50
2019-02-20T02:13:18.817Z,100745.44
2019-02-20T02:14:53.856Z,100738.37
2019-02-20T02:16:28.924Z,100742.69
2019-02-20T02:18:03.970Z,100744.02
2019-02-20T02:19:39.013Z,100747.69
2019-02-20T02:21:14.263Z,100746.77
2019-02-20T02:22:49.571Z,100755.20
2019-02-20T02:24:24.356Z,100755.72
2019-02-20T02:25:59.009Z,100751.70
2019-02-20T02:27:33.366Z,100752.70
2019-02-20T02:29:08.005Z,100754.80
2019-02-20T02:30:42.616Z,100754.56
2019-02-20T02:32:16.982Z,100750.99
2019-02-20T02:33:51.337Z,100757.74
2019-02-20T02:35:25.736Z,100757.48
2019-02-20T02:37:00.695Z,100762.58
2019-02-20T02:38:35.051Z,100762.13
2019-02-20T02:40:09.555Z,100762.93
2019-02-20T02:41:44.855Z,100762.92
2019-02-20T02:43:19.515Z,100761.55
2019-02-20T02:44:54.030Z,100760.30
2019-02-20T02:46:28.439Z,100752.09
2019-02-20T02:48:02.830Z,100756.43
2019-02-20T02:49:37.485Z,100765.25
2019-02-20T02:51:12.681Z,100764.08
2019-02-20T02:52:47.055Z,100761.14
2019-02-20T02:54:22.433Z,100768.27
2019-02-20T02:55:56.794Z,100760.31
2019-02-20T02:57:31.159Z,100760.05
2019-02-20T02:59:05.600Z,100757.75
2019-02-20T03:00:40.059Z,100764.00
2019-02-20T03:02:14.528Z,100763.58
2019-02-20T03:03:48.962Z,100765.53
2019-02-20T03:05:23.595Z,100758.00
2019-02-20T03:06:58.475Z,100755.13
2019-02-20T03:08:32.843Z,100758.17
2019-02-20T03:10:07.701Z,100765.22
2019-02-20T03:11:42.140Z,100761.69
2019-02-20T03:13:16.771Z,100766.93
2019-02-20T03:14:51.139Z,100760.55
2019-02-20T03:16:25.503Z,100769.73
2019-02-20T03:17:59.874Z,100759.08
2019-02-20T03:19:34.325Z,100763.81
2019-02-20T03:21:08.697Z,100763.26
2019-02-20T03:22:43.389Z,100766.64
2019-02-20T03:24:17.745Z,100766.55
2019-02-20T03:25:52.393Z,100767.41
2019-02-20T03:27:26.770Z,100776.84
2019-02-20T03:29:01.389Z,100770.61
2019-02-20T03:30:35.786Z,100774.42
2019-02-20T03:32:11.128Z,100773.34
2019-02-20T03:33:45.605Z,100770.22
2019-02-20T03:35:20.080Z,100779.39
2019-02-20T03:36:54.794Z,100780.94
2019-02-20T03:38:30.562Z,100783.13
2019-02-20T03:40:10.810Z,100784.47
2019-02-20T03:41:45.693Z,100800.31
2019-02-20T03:43:20.142Z,100800.33
2019-02-20T03:44:54.510Z,100805.88
2019-02-20T03:46:29.188Z,100814.41
2019-02-20T03:48:03.572Z,100802.52
2019-02-20T03:49:37.947Z,100798.50
2019-02-20T03:51:12.597Z,100801.22
2019-02-20T03:52:46.958Z,100803.44
2019-02-20T03:54:21.584Z,100807.95
2019-02-20T03:55:56.523Z,100811.53
2019-02-20T03:57:30.908Z,100814.39
2019-02-20T03:59:05.542Z,100809.56
2019-02-20T04:00:39.906Z,100814.53
2019-02-20T04:02:14.369Z,100816.30
2019-02-20T04:03:48.843Z,100815.57
2019-02-20T04:05:23.532Z,100821.66
2019-02-20T04:06:58.563Z,100814.16
2019-02-20T04:08:33.020Z,100817.19
2019-02-20T04:10:09.109Z,100825.15
2019-02-20T04:11:43.771Z,100821.33
2019-02-20T04:13:18.386Z,100821.38
2019-02-20T04:14:53.284Z,100824.56
2019-02-20T04:16:27.934Z,100820.50
2019-02-20T04:18:02.296Z,100820.76
2019-02-20T04:19:36.653Z,100818.52
2019-02-20T04:21:11.041Z,100819.17
2019-02-20T04:22:45.640Z,100818.59
2019-02-20T04:24:20.001Z,100821.65
2019-02-20T04:25:54.659Z,100819.70
2019-02-20T04:27:29.411Z,100816.17
2019-02-20T04:29:03.770Z,100817.69
2019-02-20T04:30:38.459Z,100816.57
2019-02-20T04:32:12.987Z,100821.38
2019-02-20T04:33:47.527Z,100820.03
2019-02-20T04:35:21.928Z,100816.20
2019-02-20T04:36:56.643Z,100812.39
2019-02-20T04:38:31.302Z,100811.72
2019-02-20T04:40:06.107Z,100811.72
2019-02-20T04:41:40.967Z,100807.09
2019-02-20T04:43:16.002Z,100808.45
2019-02-20T04:44:50.626Z,100808.28
2019-02-20T04:46:25.667Z,100812.98
2019-02-20T04:48:00.194Z,100809.37
2019-02-20T04:49:34.563Z,100798.20
2019-02-20T04:51:09.025Z,100803.05
2019-02-20T04:52:44.008Z,100791.64
2019-02-20T04:54:18.812Z,100799.28
2019-02-20T04:55:53.586Z,100795.42
2019-02-20T04:57:27.990Z,100790.77
2019-02-20T04:59:02.430Z,100794.20
2019-02-20T05:00:36.876Z,100790.27
2019-02-20T05:02:11.242Z,100796.53
2019-02-20T05:03:45.943Z,100807.94
2019-02-20T05:05:20.389Z,100811.30
2019-02-20T05:06:55.259Z,100806.50
2019-02-20T05:08:30.038Z,100803.86
2019-02-20T05:10:05.111Z,100808.35
2019-02-20T05:11:40.355Z,100811.30
2019-02-20T05:13:15.660Z,100814.59
2019-02-20T05:14:50.712Z,100813.55
2019-02-20T05:16:25.503Z,100807.81
2019-02-20T05:18:00.329Z,100810.20
2019-02-20T05:19:35.137Z,100811.16
2019-02-20T05:21:09.953Z,100814.29
2019-02-20T05:22:44.744Z,100818.28
2019-02-20T05:24:24.689Z,100818.50
2019-02-20T05:25:57.082Z,100816.18
2019-02-20T05:27:32.440Z,100815.59
2019-02-20T05:29:07.219Z,100815.03
2019-02-20T05:30:42.277Z,100809.28
2019-02-20T05:32:17.527Z,100814.04
2019-02-20T05:33:52.811Z,100814.64
2019-02-20T05:35:27.845Z,100820.42
2019-02-20T05:37:02.871Z,100818.70
2019-02-20T05:38:37.646Z,100814.02
2019-02-20T05:40:12.840Z,100820.31
2019-02-20T05:41:47.890Z,100815.30
2019-02-20T05:43:22.728Z,100817.28
2019-02-20T05:44:57.508Z,100816.98
2019-02-20T05:46:32.541Z,100811.91
2019-02-20T05:48:07.323Z,100814.78
2019-02-20T05:49:43.111Z,100810.63
2019-02-20T05:51:18.162Z,100823.12
2019-02-20T05:52:52.757Z,100807.52
2019-02-20T05:54:34.096Z,100818.55
2019-02-20T05:56:03.925Z,100827.02
2019-02-20T05:57:38.587Z,100831.76
2019-02-20T05:59:12.945Z,100825.97
2019-02-20T06:00:47.314Z,100829.14
2019-02-20T06:02:21.766Z,100833.74
2019-02-20T06:03:56.134Z,100835.05
2019-02-20T06:05:30.867Z,100834.91
2019-02-20T06:07:05.648Z,100837.11
2019-02-20T06:08:40.459Z,100832.89
2019-02-20T06:10:15.529Z,100834.96
2019-02-20T06:11:50.803Z,100839.69
2019-02-20T06:13:25.823Z,100844.08
2019-02-20T06:15:00.611Z,100847.23
2019-02-20T06:16:35.434Z,100848.55
2019-02-20T06:18:10.446Z,100853.73
2019-02-20T06:19:45.219Z,100860.09
2019-02-20T06:21:20.000Z,100867.34
2019-02-20T06:22:55.327Z,100869.42
2019-02-20T06:24:30.107Z,100888.91
2019-02-20T06:26:04.911Z,100881.23
2019-02-20T06:27:39.674Z,100881.88
2019-02-20T06:29:14.579Z,100881.67
2019-02-20T06:30:49.612Z,100891.30
2019-02-20T06:32:24.405Z,100885.83
2019-02-20T06:33:59.191Z,100889.29
2019-02-20T06:35:34.249Z,100899.41
2019-02-20T06:37:09.046Z,100893.58
2019-02-20T06:38:44.075Z,100884.16
2019-02-20T06:40:18.853Z,100892.53
2019-02-20T06:41:53.947Z,100891.16
2019-02-20T06:43:29.012Z,100888.67
2019-02-20T06:45:05.220Z,100889.58
2019-02-20T06:46:40.289Z,100899.08
2019-02-20T06:48:15.349Z,100894.64
2019-02-20T06:49:50.138Z,100894.37
2019-02-20T06:51:24.925Z,100901.17
2019-02-20T06:53:00.219Z,100911.02
2019-02-20T06:54:35.055Z,100903.91
2019-02-20T06:56:09.835Z,100900.04
2019-02-20T06:57:45.219Z,100907.48
2019-02-20T06:59:20.255Z,100912.04
2019-02-20T07:00:55.331Z,100908.23
2019-02-20T07:02:30.340Z,100911.78
2019-02-20T07:04:05.123Z,100916.20
2019-02-20T07:05:43.267Z,100915.27
2019-02-20T07:08:08.831Z,100919.89
2019-02-20T07:10:39.158Z,100922.09
2019-02-20T07:12:34.466Z,100929.91
2019-02-20T07:14:56.380Z,100929.95
2019-02-20T07:17:14.334Z,100931.05
2019-02-20T07:19:16.341Z,100929.84
2019-02-20T07:21:35.598Z,100937.02
2019-02-20T07:23:33.977Z,100939.05
2019-02-20T07:25:50.357Z,100940.48
2019-02-20T07:28:06.787Z,100947.24
2019-02-20T07:30:07.473Z,100947.81
2019-02-20T07:31:42.838Z,100950.55
2019-02-20T07:33:17.874Z,100946.92
2019-02-20T07:34:52.326Z,100955.63
2019-02-20T07:36:26.910Z,100957.59
2019-02-20T07:38:04.014Z,100960.02
2019-02-20T07:39:38.799Z,100957.05
2019-02-20T07:41:13.809Z,100959.08
2019-02-20T07:42:48.664Z,100959.96
2019-02-20T07:44:23.552Z,100966.97
2019-02-20T07:45:58.570Z,100962.82
2019-02-20T07:47:33.375Z,100964.30
2019-02-20T07:49:08.396Z,100972.94
2019-02-20T07:50:43.295Z,100977.45
2019-02-20T07:52:18.115Z,100976.98
2019-02-20T07:53:52.870Z,100976.86
2019-02-20T07:55:27.692Z,100979.11
2019-02-20T07:57:02.722Z,100972.44
2019-02-20T07:58:37.762Z,100976.27
2019-02-20T08:00:14.399Z,100975.63
2019-02-20T08:01:49.171Z,100976.00
2019-02-20T08:03:24.026Z,100975.63
2019-02-20T08:04:59.048Z,100976.81
2019-02-20T08:06:34.098Z,100970.98
2019-02-20T08:08:08.759Z,100977.34
2019-02-20T08:09:43.158Z,100978.16
2019-02-20T08:11:36.933Z,100976.84
2019-02-20T08:13:14.415Z,100983.63
2019-02-20T08:14:50.518Z,100986.02
2019-02-20T08:16:26.682Z,100989.59
2019-02-20T08:18:08.534Z,100988.38
2019-02-20T08:19:45.538Z,100989.23
2019-02-20T08:21:20.906Z,100987.19
2019-02-20T08:22:55.642Z,100988.08
2019-02-20T08:24:30.354Z,100981.00
2019-02-20T08:26:04.783Z,100988.56
2019-02-20T08:27:39.266Z,100981.20
2019-02-20T08:29:14.049Z,100982.05
2019-02-20T08:30:49.068Z,100984.88
2019-02-20T08:32:24.049Z,100990.07
2019-02-20T08:33:59.074Z,100986.19
2019-02-20T08:35:34.119Z,100986.11
2019-02-20T08:37:11.758Z,100992.88
2019-02-20T08:38:46.848Z,100994.33
2019-02-20T08:40:21.866Z,100996.35
2019-02-20T08:41:56.665Z,100994.51
2019-02-20T08:43:31.812Z,101001.24
2019-02-20T08:45:07.846Z,100995.12
2019-02-20T08:46:42.673Z,101003.81
2019-02-20T08:48:17.564Z,101004.72
2019-02-20T08:49:54.396Z,101011.38
2019-02-20T08:51:29.458Z,101006.49
2019-02-20T08:53:04.357Z,101007.05
2019-02-20T08:54:39.186Z,101005.17
2019-02-20T08:56:14.248Z,101011.39
2019-02-20T08:57:49.322Z,101012.06
2019-02-20T08:59:24.179Z,101019.17
2019-02-20T09:00:59.215Z,101014.25
2019-02-20T09:02:34.015Z,101017.63
2019-02-20T09:04:09.096Z,101021.91
2019-02-20T09:05:43.892Z,101022.98
2019-02-20T09:07:21.855Z,101013.25
2019-02-20T09:08:56.696Z,101016.98
2019-02-20T09:10:31.404Z,101020.64
2019-02-20T09:12:05.788Z,101024.86
2019-02-20T09:13:40.869Z,101027.78
2019-02-20T09:15:16.643Z,101027.48
2019-02-20T09:16:51.794Z,101027.80
2019-02-20T09:18:26.596Z,101026.73
2019-02-20T09:20:01.787Z,101021.16
2019-02-20T09:21:43.964Z,101018.33
2019-02-20T09:23:19.981Z,101024.05
2019-02-20T09:24:55.035Z,101025.50
2019-02-20T09:26:29.883Z,101028.77
2019-02-20T09:28:05.027Z,101025.16
2019-02-20T09:29:40.061Z,101024.91
2019-02-20T09:31:35.532Z,101030.64
2019-02-20T09:33:13.595Z,101024.45
2019-02-20T09:34:48.380Z,101029.64
2019-02-20T09:36:23.432Z,101027.58
2019-02-20T09:38:01.165Z,101028.95
2019-02-20T09:39:38.191Z,101026.45
2019-02-20T09:41:13.135Z,101033.12
2019-02-20T09:42:48.327Z,101029.40
2019-02-20T09:44:23.197Z,101032.48
2019-02-20T09:45:58.482Z,101026.56
2019-02-20T09:47:33.520Z,101028.72
2019-02-20T09:49:08.716Z,101031.20
2019-02-20T09:50:43.796Z,101030.78
2019-02-20T09:52:18.607Z,101023.48
2019-02-20T09:53:56.574Z,101029.61
2019-02-20T09:55:34.747Z,101015.34
2019-02-20T09:57:09.854Z,101031.06
2019-02-20T09:58:44.669Z,101028.05
2019-02-20T10:00:20.334Z,101030.30
2019-02-20T10:01:55.389Z,101027.08
2019-02-20T10:03:30.709Z,101023.11
2019-02-20T10:05:05.579Z,101028.12
2019-02-20T10:06:40.729Z,101030.92
2019-02-20T10:08:15.543Z,101030.06
2019-02-20T10:09:50.333Z,101026.11
2019-02-20T10:11:25.456Z,101020.48
2019-02-20T10:13:00.284Z,101017.89
2019-02-20T10:14:35.765Z,101015.65
2019-02-20T10:16:10.608Z,101014.44
2019-02-20T10:17:45.747Z,101012.61
2019-02-20T10:19:20.558Z,101022.13
2019-02-20T10:20:55.366Z,101013.09
2019-02-20T10:22:31.429Z,101012.11
2019-02-20T10:24:06.218Z,101016.06
2019-02-20T10:25:41.047Z,101013.94
2019-02-20T10:27:16.362Z,101007.09
2019-02-20T10:28:51.144Z,101004.75
2019-02-20T10:30:26.427Z,101011.95
2019-02-20T10:32:01.516Z,101009.16
2019-02-20T10:33:36.437Z,101006.03
2019-02-20T10:35:14.294Z,101002.08
2019-02-20T10:36:49.140Z,101006.60
2019-02-20T10:38:23.987Z,101007.31
2019-02-20T10:39:58.787Z,101007.38
2019-02-20T10:41:33.868Z,101008.59
2019-02-20T10:43:08.687Z,101007.21
2019-02-20T10:44:46.313Z,101008.55
2019-02-20T10:46:25.123Z,101007.44
2019-02-20T10:48:02.981Z,101003.45
2019-02-20T10:49:44.639Z,100999.72
2019-02-20T10:51:39.591Z,100996.05
2019-02-20T10:53:15.048Z,100996.23
2019-02-20T10:54:57.604Z,100995.56
2019-02-20T10:56:26.956Z,100995.22
2019-02-20T10:58:03.782Z,100996.95
2019-02-20T10:59:39.607Z,100991.70
2019-02-20T11:01:19.494Z,101001.31
2019-02-20T11:02:54.466Z,101010.38
2019-02-20T11:04:35.554Z,101011.06
2019-02-20T11:06:10.980Z,101005.03
2019-02-20T11:07:45.734Z,101004.06
2019-02-20T11:09:20.394Z,101001.37
2019-02-20T11:10:55.318Z,100997.13
2019-02-20T11:12:29.696Z,101009.64
2019-02-20T11:14:04.678Z,101011.02
2019-02-20T11:15:39.144Z,101010.21
2019-02-20T11:17:15.997Z,100996.84
2019-02-20T11:19:36.358Z,101006.03
2019-02-20T11:21:14.351Z,100997.67
2019-02-20T11:22:54.907Z,101001.11
2019-02-20T11:24:29.943Z,100985.17
2019-02-20T11:26:04.901Z,100994.87
2019-02-20T11:27:39.754Z,100985.53
2019-02-20T11:31:30.823Z,100994.05
2019-02-20T11:33:05.961Z,100989.45
2019-02-20T11:34:42.574Z,100994.48
2019-02-20T11:36:18.019Z,100980.41
2019-02-20T11:38:15.052Z,100989.99
2019-02-20T11:39:53.979Z,100998.00
2019-02-20T11:41:28.715Z,101003.75
2019-02-20T11:43:03.831Z,100996.66
2019-02-20T11:44:40.538Z,100999.20
2019-02-20T11:46:16.061Z,100995.27
2019-02-20T11:48:43.073Z,100998.78
2019-02-20T11:54:15.941Z,100998.50
2019-02-20T11:59:47.618Z,100992.99
2019-02-20T12:01:25.550Z,100995.39
2019-02-20T12:30:26.315Z,100974.72
2019-02-20T12:33:17.640Z,100981.19
2019-02-20T12:45:13.330Z,100964.94
2019-02-20T14:32:06.444Z,101004.83
2019-02-20T14:37:33.953Z,101003.61
2019-02-20T14:40:09.604Z,101000.33
2019-02-20T14:46:14.170Z,100997.61
2019-02-20T14:49:31.006Z,100999.64
2019-02-20T14:52:09.716Z,101002.06
2019-02-20T14:55:12.069Z,101001.05
2019-02-20T15:00:59.497Z,101000.79
2019-02-20T15:02:36.248Z,100994.80
2019-02-20T15:04:30.383Z,100994.67
2019-02-20T15:06:05.674Z,100997.10
2019-02-20T15:07:40.840Z,101001.88
2019-02-20T15:09:16.056Z,101001.12
2019-02-20T15:10:50.950Z,101001.37
2019-02-20T15:12:26.329Z,101006.55
2019-02-20T15:14:01.268Z,100998.52
2019-02-20T15:15:36.177Z,101002.08
2019-02-20T15:17:11.447Z,101005.41
2019-02-20T15:18:46.365Z,101007.59
2019-02-20T15:20:21.400Z,101007.19
2019-02-20T15:21:56.274Z,101015.67
2019-02-20T15:23:31.340Z,101018.10
2019-02-20T15:25:07.008Z,101008.06
2019-02-20T15:26:42.075Z,101013.01
2019-02-20T15:28:17.472Z,101018.14
2019-02-20T15:29:52.283Z,101021.56
2019-02-20T15:31:33.548Z,101023.27
2019-02-20T15:33:03.829Z,101019.50
2019-02-20T15:34:38.618Z,101022.47
2019-02-20T15:36:13.493Z,101026.84
2019-02-20T15:37:49.068Z,101030.55
2019-02-20T15:39:24.382Z,101023.87
2019-02-20T15:40:59.435Z,101028.12
2019-02-20T15:42:34.563Z,101024.38
2019-02-20T15:44:09.622Z,101027.64
2019-02-20T15:45:44.998Z,101031.17
2019-02-20T15:47:19.796Z,101029.11
2019-02-20T15:48:54.898Z,101032.70
2019-02-20T15:51:19.980Z,101030.98
2019-02-20T15:52:54.837Z,101037.64
2019-02-20T15:54:29.896Z,101040.57
2019-02-20T15:56:04.946Z,101037.94
2019-02-20T15:57:43.676Z,101042.43
2019-02-20T15:59:20.385Z,101040.84
2019-02-20T16:00:56.972Z,101040.53
2019-02-20T16:02:31.812Z,101045.33
2019-02-20T16:04:10.334Z,101047.73
2019-02-20T16:05:45.199Z,101043.78
2019-02-20T16:07:22.984Z,101051.23
2019-02-20T16:08:58.410Z,101052.80
2019-02-20T16:10:34.800Z,101055.58
2019-02-20T16:12:09.835Z,101051.49
2019-02-20T16:13:45.611Z,101062.62
2019-02-20T16:15:27.320Z,101056.23
2019-02-20T16:17:27.176Z,101063.96
2019-02-20T16:19:04.356Z,101058.34
2019-02-20T16:20:38.885Z,101060.16
2019-02-20T16:22:13.677Z,101059.83
2019-02-20T16:23:48.472Z,101058.19
2019-02-20T16:25:23.864Z,101060.86
2019-02-20T16:26:59.004Z,101058.66
2019-02-20T16:28:34.267Z,101060.95
2019-02-20T16:30:10.751Z,101062.98
2019-02-20T16:31:45.812Z,101070.17
2019-02-20T16:33:22.537Z,101068.34
2019-02-20T16:34:59.196Z,101070.64
2019-02-20T16:36:36.823Z,101072.27
2019-02-20T16:42:18.967Z,101075.77
2019-02-20T16:42:21.555Z,101075.08
2019-02-20T16:43:56.386Z,101077.00
2019-02-20T16:45:31.250Z,101077.52
2019-02-20T16:47:06.207Z,101078.23
2019-02-20T16:48:40.990Z,101077.87
2019-02-20T16:50:16.194Z,101079.77
2019-02-20T16:51:50.958Z,101082.05
2019-02-20T16:53:27.249Z,101079.90
2019-02-20T16:55:02.514Z,101073.83
2019-02-20T16:56:37.344Z,101083.81
2019-02-20T16:58:12.479Z,101091.22
2019-02-20T16:59:47.317Z,101090.68
2019-02-20T17:01:22.484Z,101089.09
2019-02-20T17:02:57.286Z,101088.63
2019-02-20T17:04:32.301Z,101093.48
2019-02-20T17:06:07.618Z,101095.25
2019-02-20T17:07:42.903Z,101096.52
2019-02-20T17:09:18.497Z,101092.70
2019-02-20T17:10:53.865Z,101100.96
2019-02-20T17:12:30.404Z,101099.03
2019-02-20T17:14:05.428Z,101100.82
2019-02-20T17:15:40.367Z,101099.50
2019-02-20T17:17:15.515Z,101102.20
2019-02-20T17:18:50.573Z,101102.05
2019-02-20T17:20:25.953Z,101104.87
2019-02-20T17:22:00.991Z,101109.55
2019-02-20T17:23:36.371Z,101107.09
2019-02-20T17:25:12.282Z,101107.84
2019-02-20T17:26:47.085Z,101105.20
2019-02-20T17:28:22.013Z,101112.92
2019-02-20T17:29:56.809Z,101111.75
2019-02-20T17:31:31.934Z,101109.38
2019-02-20T17:33:06.708Z,101111.70
2019-02-20T17:34:41.416Z,101122.30
2019-02-20T17:36:15.849Z,101119.35
2019-02-20T17:37:50.990Z,101124.09
2019-02-20T17:39:25.990Z,101131.83
2019-02-20T17:41:00.618Z,101128.55
2019-02-20T17:42:35.866Z,101132.38
2019-02-20T17:44:10.599Z,101132.66
2019-02-20T17:45:45.385Z,101138.75
2019-02-20T17:47:19.818Z,101135.94
2019-02-20T17:48:54.523Z,101136.78
2019-02-20T17:50:29.291Z,101142.47
2019-02-20T17:52:03.736Z,101151.48
2019-02-20T17:53:38.187Z,101149.86
2019-02-20T17:55:13.052Z,101151.09
2019-02-20T17:56:47.800Z,101153.68
2019-02-20T17:58:22.722Z,101148.71
2019-02-20T17:59:57.510Z,101147.31
2019-02-20T18:01:32.274Z,101152.02
2019-02-20T18:03:07.671Z,101159.40
2019-02-20T18:04:42.685Z,101154.91
2019-02-20T18:06:17.487Z,101157.34
2019-02-20T18:07:52.276Z,101163.25
2019-02-20T18:09:26.714Z,101170.00
2019-02-20T18:11:01.710Z,101176.52
2019-02-20T18:12:36.754Z,101175.30
2019-02-20T18:14:11.103Z,101178.02
2019-02-20T18:15:45.773Z,101178.61
2019-02-20T18:17:20.296Z,101173.70
2019-02-20T18:18:54.914Z,101180.84
2019-02-20T18:20:29.287Z,101178.23
2019-02-20T18:22:04.063Z,101182.24
2019-02-20T18:23:38.555Z,101179.52
2019-02-20T18:25:13.343Z,101178.80
2019-02-20T18:26:48.036Z,101174.00
2019-02-20T18:28:24.756Z,101180.38
2019-02-20T18:29:59.261Z,101174.60
2019-02-20T18:31:33.892Z,101171.33
2019-02-20T18:33:08.347Z,101173.89
2019-02-20T18:34:42.746Z,101172.23
2019-02-20T18:36:17.429Z,101178.45
2019-02-20T18:37:52.123Z,101174.24
2019-02-20T18:39:27.135Z,101175.66
2019-02-20T18:41:01.930Z,101175.63
2019-02-20T18:42:36.788Z,101179.53
2019-02-20T18:44:11.630Z,101171.55
2019-02-20T18:45:46.435Z,101174.83
2019-02-20T18:47:21.468Z,101172.54
2019-02-20T18:48:56.258Z,101179.64
2019-02-20T18:50:31.067Z,101183.66
2019-02-20T18:52:05.872Z,101183.41
2019-02-20T18:53:40.657Z,101181.48
2019-02-20T18:55:15.525Z,101182.24
2019-02-20T18:56:50.335Z,101185.69
2019-02-20T18:58:33.544Z,101197.94
2019-02-20T19:00:01.876Z,101194.55
2019-02-20T19:01:37.168Z,101203.94
2019-02-20T19:03:11.861Z,101202.81
2019-02-20T19:04:46.514Z,101208.86
2019-02-20T19:06:21.673Z,101207.78
2019-02-20T19:07:56.553Z,101213.06
2019-02-20T19:09:31.693Z,101204.56
2019-02-20T19:11:17.127Z,101211.88
2019-02-20T19:13:29.248Z,101211.93
2019-02-20T19:15:28.218Z,101210.16
2019-02-20T19:18:02.460Z,101213.20
2019-02-20T19:19:48.384Z,101213.40
2019-02-20T19:21:38.490Z,101221.52
2019-02-20T19:23:53.942Z,101218.78
2019-02-20T19:25:53.193Z,101225.72
2019-02-20T19:27:40.344Z,101224.06
2019-02-20T19:29:46.717Z,101223.82
2019-02-20T19:32:03.239Z,101224.03
2019-02-20T19:34:17.235Z,101232.00
2019-02-20T19:37:00.793Z,101228.77
2019-02-20T19:39:29.793Z,101238.17
2019-02-20T19:41:38.876Z,101236.93
2019-02-20T19:43:52.810Z,101237.72
2019-02-20T19:45:49.125Z,101243.05
2019-02-20T19:48:24.791Z,101246.44
2019-02-20T19:51:11.708Z,101247.70
2019-02-20T19:53:07.277Z,101243.09
2019-02-20T19:54:58.663Z,101240.48
2019-02-20T19:57:20.415Z,101246.45
2019-02-20T19:59:31.212Z,101239.42
2019-02-20T20:02:01.724Z,101245.12
2019-02-20T20:04:10.352Z,101238.80
2019-02-20T20:07:06.536Z,101247.58
2019-02-20T20:09:09.509Z,101251.41
2019-02-20T20:11:24.583Z,101244.20
2019-02-20T20:13:35.883Z,101241.30
2019-02-20T20:15:55.289Z,101236.41
2019-02-20T20:18:30.095Z,101237.70
2019-02-20T20:20:19.422Z,101238.84
2019-02-20T20:22:30.482Z,101244.34
2019-02-20T20:24:42.567Z,101243.67
2019-02-20T20:27:15.698Z,101250.05
2019-02-20T20:29:49.964Z,101252.87
2019-02-20T20:32:10.240Z,101250.39
2019-02-20T20:34:32.723Z,101250.37
2019-02-20T20:37:04.631Z,101254.22
2019-02-20T20:39:18.495Z,101257.27
2019-02-20T20:41:54.074Z,101262.03
2019-02-20T20:44:01.527Z,101252.64
2019-02-20T20:46:45.599Z,101257.80
2019-02-20T20:48:52.069Z,101239.94
2019-02-20T20:50:42.809Z,101244.16
2019-02-20T20:52:47.907Z,101237.61
2019-02-20T20:55:32.551Z,101249.11
2019-02-20T20:58:10.009Z,101248.50
2019-02-20T21:00:38.423Z,101244.59
2019-02-20T21:02:26.408Z,101247.06
2019-02-20T21:04:51.096Z,101243.75
2019-02-20T21:07:12.273Z,101244.48
2019-02-20T21:09:22.472Z,101243.04
2019-02-20T21:11:37.627Z,101254.16
2019-02-20T21:13:48.382Z,101249.47
2019-02-20T21:15:54.563Z,101248.69
2019-02-20T21:18:52.491Z,101241.77
2019-02-20T21:21:00.147Z,101246.28
2019-02-20T21:23:25.629Z,101245.88
2019-02-20T21:25:30.976Z,101243.48
2019-02-20T21:27:33.748Z,101244.73
2019-02-20T21:29:47.284Z,101237.74
2019-02-20T21:32:19.538Z,101239.64
2019-02-20T21:34:22.107Z,101244.63
2019-02-20T21:36:58.979Z,101244.91
2019-02-20T21:39:40.494Z,101243.06
2019-02-20T21:41:44.309Z,101238.46
2019-02-20T21:44:18.504Z,101244.50
2019-02-20T21:46:37.629Z,101242.91
2019-02-20T21:49:52.665Z,101236.52
2019-02-20T21:52:21.238Z,101241.92
2019-02-20T21:54:55.771Z,101248.99
2019-02-20T22:01:12.937Z,101242.14
2019-02-20T22:14:28.849Z,101253.10
2019-02-20T22:17:23.759Z,101259.69
2019-02-20T22:19:48.425Z,101256.70
2019-02-20T22:22:32.480Z,101256.48
2019-02-20T22:25:12.456Z,101258.81